PWSweather.com
Personal Weather Stations
Station Observations
MADWEATHER
MadeiraPT

MadeiraPT

Lat: 32.735, Lon: -17.194

Elevation: 1063

Station Type: Davis VantagePro2

www.mad-weather.com

High Low Average
Temperature 75.7°F24.3°C 65.9°F18.8°C 69.7°F20.9°C
Dew Point 68.1°F20.1°C 61.0°F16.1°C 64.7°F18.2°C
Winds 6.5 mph 10.5 kmh Calm Calm 2.0 mph W3.2 kmh W
Wind Gusts 10.0 mph16.1 kmh -- 4.0 mph6.4 kmh
Humidity 91% 76% 84%
Pressure 30.08 in1018.6 mb 30.00 in1015.9 mb -
Precipitation 0.00 in0.0 mm - -
Hour Temp Dew Point Humidity Winds Wind Gusts Pressure Precip Precip Rate Daily Precip Total
12:00 AM 67.3°F19.6°C 61.3°F16.3°C 81% 1.3 mph NW2.1 kmh NW 3.0 mph4.8 kmh 30.03 in1016.9 mb - 0.00 in0.0 mm 0.00 in0.0 mm
12:10 AM 67.0°F19.4°C 61.0°F16.1°C 81% 2.7 mph NW4.3 kmh NW 4.0 mph6.4 kmh 30.03 in1016.9 mb - 0.00 in0.0 mm 0.00 in0.0 mm
12:20 AM 67.0°F19.4°C 61.3°F16.3°C 82% 3.5 mph NW5.6 kmh NW 5.0 mph8.0 kmh 30.03 in1016.9 mb - 0.00 in0.0 mm 0.00 in0.0 mm
12:30 AM 66.8°F19.3°C 61.5°F16.4°C 83% 4.1 mph NW6.6 kmh NW 5.0 mph8.0 kmh 30.03 in1016.9 mb - 0.00 in0.0 mm 0.00 in0.0 mm
12:40 AM 66.7°F19.3°C 61.4°F16.3°C 83% 2.7 mph NW4.3 kmh NW 4.0 mph6.4 kmh 30.03 in1016.9 mb - 0.00 in0.0 mm 0.00 in0.0 mm
12:50 AM 66.9°F19.4°C 61.6°F16.4°C 83% 2.7 mph NW4.3 kmh NW 4.0 mph6.4 kmh 30.04 in1017.3 mb - 0.00 in0.0 mm 0.00 in0.0 mm
01:00 AM 66.9°F19.4°C 61.6°F16.4°C 83% 3.4 mph NW5.5 kmh NW 5.0 mph8.0 kmh 30.03 in1016.9 mb - 0.00 in0.0 mm 0.00 in0.0 mm
01:10 AM 66.8°F19.3°C 61.5°F16.4°C 83% 3.3 mph NW5.3 kmh NW 6.0 mph9.7 kmh 30.03 in1016.9 mb - 0.00 in0.0 mm 0.00 in0.0 mm
01:20 AM 66.8°F19.3°C 61.5°F16.4°C 83% 1.8 mph NW2.9 kmh NW 3.0 mph4.8 kmh 30.03 in1016.9 mb - 0.00 in0.0 mm 0.00 in0.0 mm
01:30 AM 66.8°F19.3°C 61.5°F16.4°C 83% 2.7 mph NW4.3 kmh NW 4.0 mph6.4 kmh 30.03 in1016.9 mb - 0.00 in0.0 mm 0.00 in0.0 mm
01:40 AM 66.7°F19.3°C 61.4°F16.3°C 83% 2.1 mph NW3.4 kmh NW 4.0 mph6.4 kmh 30.02 in1016.6 mb - 0.00 in0.0 mm 0.00 in0.0 mm
01:50 AM 66.6°F19.2°C 61.7°F16.5°C 84% 0.1 mph NW0.2 kmh NW 2.0 mph3.2 kmh 30.02 in1016.6 mb - 0.00 in0.0 mm 0.00 in0.0 mm
02:00 AM 66.7°F19.3°C 61.7°F16.5°C 84% Calm Calm -- 30.01 in1016.3 mb - 0.00 in0.0 mm 0.00 in0.0 mm
02:10 AM 66.6°F19.2°C 61.6°F16.4°C 84% 1.8 mph NW2.9 kmh NW 3.0 mph4.8 kmh 30.01 in1016.3 mb - 0.00 in0.0 mm 0.00 in0.0 mm
02:20 AM 66.6°F19.2°C 61.9°F16.6°C 85% 0.4 mph NW0.6 kmh NW 2.0 mph3.2 kmh 30.01 in1016.3 mb - 0.00 in0.0 mm 0.00 in0.0 mm
02:30 AM 66.7°F19.3°C 62.0°F16.7°C 85% 0.2 mph NW0.3 kmh NW -- 30.01 in1016.3 mb - 0.00 in0.0 mm 0.00 in0.0 mm
02:40 AM 66.6°F19.2°C 62.3°F16.8°C 86% 2.5 mph NW4.0 kmh NW 4.0 mph6.4 kmh 30.00 in1015.9 mb - 0.00 in0.0 mm 0.00 in0.0 mm
02:50 AM 66.5°F19.2°C 62.2°F16.8°C 86% 3.2 mph NW5.1 kmh NW 5.0 mph8.0 kmh 30.01 in1016.3 mb - 0.00 in0.0 mm 0.00 in0.0 mm
03:00 AM 66.4°F19.1°C 62.4°F16.9°C 87% 1.8 mph NW2.9 kmh NW 4.0 mph6.4 kmh 30.02 in1016.6 mb - 0.00 in0.0 mm 0.00 in0.0 mm
03:10 AM 66.5°F19.2°C 62.5°F16.9°C 87% 0.4 mph NW0.6 kmh NW -- 30.02 in1016.6 mb - 0.00 in0.0 mm 0.00 in0.0 mm
03:20 AM 66.6°F19.2°C 62.9°F17.2°C 88% 3.5 mph NW5.6 kmh NW 9.0 mph14.5 kmh 30.01 in1016.3 mb - 0.00 in0.0 mm 0.00 in0.0 mm
03:30 AM 67.0°F19.4°C 63.3°F17.4°C 88% 2.2 mph W3.5 kmh W 4.0 mph6.4 kmh 30.01 in1016.3 mb - 0.00 in0.0 mm 0.00 in0.0 mm
03:40 AM 67.0°F19.4°C 63.3°F17.4°C 88% 0.9 mph W1.4 kmh W 4.0 mph6.4 kmh 30.02 in1016.6 mb - 0.00 in0.0 mm 0.00 in0.0 mm
03:50 AM 67.0°F19.4°C 63.6°F17.6°C 89% Calm Calm -- 30.01 in1016.3 mb - 0.00 in0.0 mm 0.00 in0.0 mm
04:00 AM 66.8°F19.3°C 63.5°F17.5°C 89% 0.1 mph W0.2 kmh W 2.0 mph3.2 kmh 30.01 in1016.3 mb - 0.00 in0.0 mm 0.00 in0.0 mm
04:10 AM 66.6°F19.2°C 63.3°F17.4°C 89% Calm Calm -- 30.01 in1016.3 mb - 0.00 in0.0 mm 0.00 in0.0 mm
04:20 AM 66.4°F19.1°C 63.1°F17.3°C 89% Calm Calm -- 30.01 in1016.3 mb - 0.00 in0.0 mm 0.00 in0.0 mm
04:30 AM 66.3°F19.1°C 63.0°F17.2°C 89% 0.1 mph W0.2 kmh W -- 30.01 in1016.3 mb - 0.00 in0.0 mm 0.00 in0.0 mm
04:40 AM 66.2°F19.0°C 63.2°F17.3°C 90% 0.2 mph W0.3 kmh W 2.0 mph3.2 kmh 30.01 in1016.3 mb - 0.00 in0.0 mm 0.00 in0.0 mm
04:50 AM 66.2°F19.0°C 63.2°F17.3°C 90% Calm Calm -- 30.01 in1016.3 mb - 0.00 in0.0 mm 0.00 in0.0 mm
05:00 AM 66.1°F18.9°C 63.1°F17.3°C 90% Calm Calm -- 30.01 in1016.3 mb - 0.00 in0.0 mm 0.00 in0.0 mm
05:10 AM 65.9°F18.8°C 62.9°F17.2°C 90% 0.8 mph W1.3 kmh W 2.0 mph3.2 kmh 30.01 in1016.3 mb - 0.00 in0.0 mm 0.00 in0.0 mm
05:20 AM 65.9°F18.8°C 63.2°F17.3°C 91% 4.9 mph W7.9 kmh W 6.0 mph9.7 kmh 30.00 in1015.9 mb - 0.00 in0.0 mm 0.00 in0.0 mm
05:30 AM 66.0°F18.9°C 63.3°F17.4°C 91% 3.0 mph W4.8 kmh W 5.0 mph8.0 kmh 30.01 in1016.3 mb - 0.00 in0.0 mm 0.00 in0.0 mm
05:40 AM 66.1°F18.9°C 63.4°F17.4°C 91% 3.0 mph W4.8 kmh W 3.0 mph4.8 kmh 30.01 in1016.3 mb - 0.00 in0.0 mm 0.00 in0.0 mm
05:50 AM 66.1°F18.9°C 63.4°F17.4°C 91% 1.8 mph W2.9 kmh W 3.0 mph4.8 kmh 30.00 in1015.9 mb - 0.00 in0.0 mm 0.00 in0.0 mm
06:00 AM 66.2°F19.0°C 63.5°F17.5°C 91% 2.5 mph W4.0 kmh W 3.0 mph4.8 kmh 30.00 in1015.9 mb - 0.00 in0.0 mm 0.00 in0.0 mm
06:10 AM 66.3°F19.1°C 63.6°F17.6°C 91% 3.9 mph WNW6.3 kmh WNW 5.0 mph8.0 kmh 30.00 in1015.9 mb - 0.00 in0.0 mm 0.00 in0.0 mm
06:20 AM 66.4°F19.1°C 63.7°F17.6°C 91% 4.5 mph WNW7.2 kmh WNW 5.0 mph8.0 kmh 30.01 in1016.3 mb - 0.00 in0.0 mm 0.00 in0.0 mm
06:30 AM 66.4°F19.1°C 63.7°F17.6°C 91% 2.5 mph WNW4.0 kmh WNW 3.0 mph4.8 kmh 30.01 in1016.3 mb - 0.00 in0.0 mm 0.00 in0.0 mm
06:40 AM 66.4°F19.1°C 63.7°F17.6°C 91% 3.2 mph WNW5.1 kmh WNW 4.0 mph6.4 kmh 30.02 in1016.6 mb - 0.00 in0.0 mm 0.00 in0.0 mm
06:50 AM 66.4°F19.1°C 63.7°F17.6°C 91% 2.6 mph WNW4.2 kmh WNW 3.0 mph4.8 kmh 30.02 in1016.6 mb - 0.00 in0.0 mm 0.00 in0.0 mm
07:00 AM 66.4°F19.1°C 63.7°F17.6°C 91% 0.3 mph WNW0.5 kmh WNW 3.0 mph4.8 kmh 30.02 in1016.6 mb - 0.00 in0.0 mm 0.00 in0.0 mm
07:10 AM 66.4°F19.1°C 63.7°F17.6°C 91% 2.1 mph WNW3.4 kmh WNW 3.0 mph4.8 kmh 30.02 in1016.6 mb - 0.00 in0.0 mm 0.00 in0.0 mm
07:20 AM 66.5°F19.2°C 63.8°F17.7°C 91% Calm Calm -- 30.02 in1016.6 mb - 0.00 in0.0 mm 0.00 in0.0 mm
07:30 AM 66.7°F19.3°C 64.0°F17.8°C 91% Calm Calm -- 30.03 in1016.9 mb - 0.00 in0.0 mm 0.00 in0.0 mm
07:40 AM 66.8°F19.3°C 64.1°F17.8°C 91% Calm Calm 2.0 mph3.2 kmh 30.03 in1016.9 mb - 0.00 in0.0 mm 0.00 in0.0 mm
07:50 AM 66.8°F19.3°C 64.1°F17.8°C 91% Calm Calm -- 30.03 in1016.9 mb - 0.00 in0.0 mm 0.00 in0.0 mm
08:00 AM 67.0°F19.4°C 64.3°F17.9°C 91% 0.5 mph WNW0.8 kmh WNW 4.0 mph6.4 kmh 30.03 in1016.9 mb - 0.00 in0.0 mm 0.00 in0.0 mm
08:10 AM 67.2°F19.6°C 64.5°F18.1°C 91% Calm Calm -- 30.04 in1017.3 mb - 0.00 in0.0 mm 0.00 in0.0 mm
08:20 AM 67.8°F19.9°C 65.1°F18.4°C 91% 0.4 mph WNW0.6 kmh WNW -- 30.04 in1017.3 mb - 0.00 in0.0 mm 0.00 in0.0 mm
08:30 AM 68.6°F20.3°C 65.6°F18.7°C 90% Calm Calm -- 30.05 in1017.6 mb - 0.00 in0.0 mm 0.00 in0.0 mm
08:40 AM 69.6°F20.9°C 65.9°F18.8°C 88% Calm Calm -- 30.05 in1017.6 mb - 0.00 in0.0 mm 0.00 in0.0 mm
08:50 AM 70.1°F21.2°C 65.7°F18.7°C 86% 0.7 mph WNW1.1 kmh WNW 2.0 mph3.2 kmh 30.05 in1017.6 mb - 0.00 in0.0 mm 0.00 in0.0 mm
09:00 AM 70.4°F21.3°C 65.7°F18.7°C 85% 2.4 mph WNW3.9 kmh WNW 4.0 mph6.4 kmh 30.05 in1017.6 mb - 0.00 in0.0 mm 0.00 in0.0 mm
09:10 AM 70.9°F21.6°C 65.9°F18.8°C 84% 4.0 mph WNW6.4 kmh WNW 5.0 mph8.0 kmh 30.05 in1017.6 mb - 0.00 in0.0 mm 0.00 in0.0 mm
09:20 AM 71.2°F21.8°C 65.8°F18.8°C 83% 4.0 mph WNW6.4 kmh WNW 5.0 mph8.0 kmh 30.05 in1017.6 mb - 0.00 in0.0 mm 0.00 in0.0 mm
09:30 AM 71.4°F21.9°C 66.0°F18.9°C 83% 3.4 mph WNW5.5 kmh WNW 4.0 mph6.4 kmh 30.05 in1017.6 mb - 0.00 in0.0 mm 0.00 in0.0 mm
09:40 AM 71.5°F21.9°C 66.1°F18.9°C 83% 1.1 mph WNW1.8 kmh WNW 2.0 mph3.2 kmh 30.06 in1017.9 mb - 0.00 in0.0 mm 0.00 in0.0 mm
09:50 AM 72.4°F22.4°C 66.6°F19.2°C 82% 2.8 mph WNW4.5 kmh WNW 6.0 mph9.7 kmh 30.06 in1017.9 mb - 0.00 in0.0 mm 0.00 in0.0 mm
10:00 AM 72.4°F22.4°C 66.9°F19.4°C 83% 1.0 mph WNW1.6 kmh WNW 4.0 mph6.4 kmh 30.06 in1017.9 mb - 0.00 in0.0 mm 0.00 in0.0 mm
10:10 AM 71.9°F22.2°C 65.7°F18.7°C 81% 1.8 mph WNW2.9 kmh WNW 3.0 mph4.8 kmh 30.07 in1018.3 mb - 0.00 in0.0 mm 0.00 in0.0 mm
10:20 AM 73.0°F22.8°C 66.8°F19.3°C 81% 1.8 mph WNW2.9 kmh WNW 4.0 mph6.4 kmh 30.07 in1018.3 mb - 0.00 in0.0 mm 0.00 in0.0 mm
10:30 AM 73.3°F22.9°C 66.4°F19.1°C 79% 2.8 mph WNW4.5 kmh WNW 4.0 mph6.4 kmh 30.07 in1018.3 mb - 0.00 in0.0 mm 0.00 in0.0 mm
10:40 AM 73.1°F22.8°C 66.6°F19.2°C 80% 3.7 mph WNW6.0 kmh WNW 6.0 mph9.7 kmh 30.07 in1018.3 mb - 0.00 in0.0 mm 0.00 in0.0 mm
10:50 AM 72.7°F22.6°C 65.8°F18.8°C 79% 3.1 mph WNW5.0 kmh WNW 5.0 mph8.0 kmh 30.07 in1018.3 mb - 0.00 in0.0 mm 0.00 in0.0 mm
11:00 AM 72.5°F22.5°C 66.0°F18.9°C 80% 2.6 mph WNW4.2 kmh WNW 7.0 mph11.3 kmh 30.07 in1018.3 mb - 0.00 in0.0 mm 0.00 in0.0 mm
11:10 AM 72.1°F22.3°C 65.9°F18.8°C 81% 2.0 mph WNW3.2 kmh WNW 7.0 mph11.3 kmh 30.07 in1018.3 mb - 0.00 in0.0 mm 0.00 in0.0 mm
11:20 AM 72.0°F22.2°C 66.2°F19.0°C 82% 3.8 mph WNW6.1 kmh WNW 5.0 mph8.0 kmh 30.08 in1018.6 mb - 0.00 in0.0 mm 0.00 in0.0 mm
11:30 AM 72.0°F22.2°C 66.6°F19.2°C 83% 4.8 mph WNW7.7 kmh WNW 7.0 mph11.3 kmh 30.08 in1018.6 mb - 0.00 in0.0 mm 0.00 in0.0 mm
11:40 AM 71.7°F22.1°C 66.3°F19.1°C 83% 3.5 mph WNW5.6 kmh WNW 3.0 mph4.8 kmh 30.08 in1018.6 mb - 0.00 in0.0 mm 0.00 in0.0 mm
11:50 AM 71.7°F22.1°C 66.6°F19.2°C 84% 4.2 mph WNW6.8 kmh WNW 6.0 mph9.7 kmh 30.08 in1018.6 mb - 0.00 in0.0 mm 0.00 in0.0 mm
12:00 PM 71.9°F22.2°C 66.8°F19.3°C 84% 3.8 mph WNW6.1 kmh WNW 6.0 mph9.7 kmh 30.07 in1018.3 mb - 0.00 in0.0 mm 0.00 in0.0 mm
12:10 PM 72.1°F22.3°C 67.0°F19.4°C 84% 4.0 mph WNW6.4 kmh WNW 5.0 mph8.0 kmh 30.07 in1018.3 mb - 0.00 in0.0 mm 0.00 in0.0 mm
12:20 PM 72.4°F22.4°C 66.9°F19.4°C 83% 3.2 mph WNW5.1 kmh WNW 7.0 mph11.3 kmh 30.07 in1018.3 mb - 0.00 in0.0 mm 0.00 in0.0 mm
12:30 PM 72.0°F22.2°C 66.6°F19.2°C 83% 4.0 mph WNW6.4 kmh WNW 6.0 mph9.7 kmh 30.07 in1018.3 mb - 0.00 in0.0 mm 0.00 in0.0 mm
12:40 PM 73.0°F22.8°C 66.8°F19.3°C 81% 4.8 mph WNW7.7 kmh WNW 6.0 mph9.7 kmh 30.07 in1018.3 mb - 0.00 in0.0 mm 0.00 in0.0 mm
12:50 PM 73.5°F23.1°C 67.3°F19.6°C 81% 4.1 mph W6.6 kmh W 6.0 mph9.7 kmh 30.07 in1018.3 mb - 0.00 in0.0 mm 0.00 in0.0 mm
01:00 PM 74.6°F23.7°C 67.6°F19.8°C 79% 3.2 mph W5.1 kmh W 6.0 mph9.7 kmh 30.07 in1018.3 mb - 0.00 in0.0 mm 0.00 in0.0 mm
01:10 PM 73.8°F23.2°C 67.2°F19.6°C 80% 5.1 mph W8.2 kmh W 8.0 mph12.9 kmh 30.07 in1018.3 mb - 0.00 in0.0 mm 0.00 in0.0 mm
01:20 PM 74.4°F23.6°C 67.5°F19.7°C 79% 6.5 mph W10.5 kmh W 10.0 mph16.1 kmh 30.06 in1017.9 mb - 0.00 in0.0 mm 0.00 in0.0 mm
01:30 PM 74.0°F23.3°C 66.7°F19.3°C 78% 6.5 mph W10.5 kmh W 10.0 mph16.1 kmh 30.06 in1017.9 mb - 0.00 in0.0 mm 0.00 in0.0 mm
01:40 PM 74.2°F23.4°C 67.3°F19.6°C 79% 5.2 mph W8.4 kmh W 7.0 mph11.3 kmh 30.05 in1017.6 mb - 0.00 in0.0 mm 0.00 in0.0 mm
01:50 PM 75.4°F24.1°C 68.1°F20.1°C 78% 4.6 mph W7.4 kmh W 7.0 mph11.3 kmh 30.05 in1017.6 mb - 0.00 in0.0 mm 0.00 in0.0 mm
02:00 PM 75.3°F24.1°C 67.6°F19.8°C 77% 5.3 mph W8.5 kmh W 6.0 mph9.7 kmh 30.05 in1017.6 mb - 0.00 in0.0 mm 0.00 in0.0 mm
02:10 PM 74.8°F23.8°C 67.1°F19.5°C 77% 5.5 mph W8.9 kmh W 7.0 mph11.3 kmh 30.06 in1017.9 mb - 0.00 in0.0 mm 0.00 in0.0 mm
02:20 PM 74.9°F23.8°C 67.6°F19.8°C 78% 3.3 mph W5.3 kmh W 9.0 mph14.5 kmh 30.05 in1017.6 mb - 0.00 in0.0 mm 0.00 in0.0 mm
02:30 PM 75.7°F24.3°C 67.6°F19.8°C 76% 5.0 mph W8.0 kmh W 10.0 mph16.1 kmh 30.05 in1017.6 mb - 0.00 in0.0 mm 0.00 in0.0 mm
02:40 PM 75.0°F23.9°C 66.9°F19.4°C 76% 5.1 mph W8.2 kmh W 7.0 mph11.3 kmh 30.04 in1017.3 mb - 0.00 in0.0 mm 0.00 in0.0 mm
02:50 PM 75.2°F24.0°C 67.1°F19.5°C 76% 5.4 mph W8.7 kmh W 9.0 mph14.5 kmh 30.04 in1017.3 mb - 0.00 in0.0 mm 0.00 in0.0 mm
03:00 PM 75.5°F24.2°C 67.4°F19.7°C 76% 5.7 mph W9.2 kmh W 7.0 mph11.3 kmh 30.04 in1017.3 mb - 0.00 in0.0 mm 0.00 in0.0 mm
03:10 PM 74.7°F23.7°C 66.6°F19.2°C 76% 5.0 mph W8.0 kmh W 7.0 mph11.3 kmh 30.04 in1017.3 mb - 0.00 in0.0 mm 0.00 in0.0 mm
03:20 PM 74.5°F23.6°C 67.2°F19.6°C 78% 5.5 mph W8.9 kmh W 10.0 mph16.1 kmh 30.04 in1017.3 mb - 0.00 in0.0 mm 0.00 in0.0 mm
03:30 PM 74.9°F23.8°C 67.5°F19.7°C 78% 4.6 mph W7.4 kmh W 7.0 mph11.3 kmh 30.04 in1017.3 mb - 0.00 in0.0 mm 0.00 in0.0 mm
03:40 PM 75.2°F24.0°C 67.5°F19.7°C 77% 5.8 mph WSW9.3 kmh WSW 6.0 mph9.7 kmh 30.04 in1017.3 mb - 0.00 in0.0 mm 0.00 in0.0 mm
03:50 PM 74.8°F23.8°C 67.1°F19.5°C 77% 4.6 mph WSW7.4 kmh WSW 7.0 mph11.3 kmh 30.04 in1017.3 mb - 0.00 in0.0 mm 0.00 in0.0 mm
04:00 PM 74.1°F23.4°C 67.2°F19.6°C 79% 4.3 mph WSW6.9 kmh WSW 6.0 mph9.7 kmh 30.04 in1017.3 mb - 0.00 in0.0 mm 0.00 in0.0 mm
04:10 PM 74.8°F23.8°C 67.5°F19.7°C 78% 4.7 mph WSW7.6 kmh WSW 7.0 mph11.3 kmh 30.04 in1017.3 mb - 0.00 in0.0 mm 0.00 in0.0 mm
04:20 PM 74.2°F23.4°C 66.9°F19.4°C 78% 4.7 mph WSW7.6 kmh WSW 7.0 mph11.3 kmh 30.04 in1017.3 mb - 0.00 in0.0 mm 0.00 in0.0 mm
04:30 PM 73.6°F23.1°C 66.7°F19.3°C 79% 3.3 mph WSW5.3 kmh WSW 5.0 mph8.0 kmh 30.04 in1017.3 mb - 0.00 in0.0 mm 0.00 in0.0 mm
04:40 PM 73.2°F22.9°C 67.0°F19.4°C 81% 4.1 mph WSW6.6 kmh WSW 6.0 mph9.7 kmh 30.04 in1017.3 mb - 0.00 in0.0 mm 0.00 in0.0 mm
04:50 PM 73.5°F23.1°C 66.9°F19.4°C 80% 1.7 mph WSW2.7 kmh WSW 6.0 mph9.7 kmh 30.05 in1017.6 mb - 0.00 in0.0 mm 0.00 in0.0 mm
05:00 PM 73.7°F23.2°C 67.5°F19.7°C 81% 3.7 mph WSW6.0 kmh WSW 7.0 mph11.3 kmh 30.05 in1017.6 mb - 0.00 in0.0 mm 0.00 in0.0 mm
05:10 PM 73.3°F22.9°C 66.8°F19.3°C 80% 4.6 mph WSW7.4 kmh WSW 7.0 mph11.3 kmh 30.05 in1017.6 mb - 0.00 in0.0 mm 0.00 in0.0 mm
05:20 PM 73.2°F22.9°C 67.0°F19.4°C 81% 1.9 mph WSW3.1 kmh WSW 5.0 mph8.0 kmh 30.05 in1017.6 mb - 0.00 in0.0 mm 0.00 in0.0 mm
05:30 PM 73.2°F22.9°C 67.0°F19.4°C 81% 3.3 mph WSW5.3 kmh WSW 5.0 mph8.0 kmh 30.05 in1017.6 mb - 0.00 in0.0 mm 0.00 in0.0 mm
05:40 PM 73.3°F22.9°C 66.8°F19.3°C 80% 3.1 mph WSW5.0 kmh WSW 5.0 mph8.0 kmh 30.04 in1017.3 mb - 0.00 in0.0 mm 0.00 in0.0 mm
05:50 PM 73.2°F22.9°C 66.7°F19.3°C 80% 1.5 mph WSW2.4 kmh WSW 1.0 mph1.6 kmh 30.04 in1017.3 mb - 0.00 in0.0 mm 0.00 in0.0 mm
06:00 PM 72.9°F22.7°C 66.0°F18.9°C 79% 4.0 mph WSW6.4 kmh WSW 5.0 mph8.0 kmh 30.04 in1017.3 mb - 0.00 in0.0 mm 0.00 in0.0 mm
06:10 PM 72.6°F22.6°C 66.0°F18.9°C 80% 4.6 mph WSW7.4 kmh WSW 5.0 mph8.0 kmh 30.04 in1017.3 mb - 0.00 in0.0 mm 0.00 in0.0 mm
06:20 PM 72.2°F22.3°C 66.0°F18.9°C 81% 4.0 mph WSW6.4 kmh WSW 6.0 mph9.7 kmh 30.05 in1017.6 mb - 0.00 in0.0 mm 0.00 in0.0 mm
06:30 PM 71.9°F22.2°C 65.8°F18.8°C 81% 0.6 mph WSW1.0 kmh WSW 3.0 mph4.8 kmh 30.04 in1017.3 mb - 0.00 in0.0 mm 0.00 in0.0 mm
06:40 PM 71.5°F21.9°C 65.4°F18.6°C 81% 3.0 mph WSW4.8 kmh WSW 4.0 mph6.4 kmh 30.05 in1017.6 mb - 0.00 in0.0 mm 0.00 in0.0 mm
06:50 PM 71.1°F21.7°C 65.0°F18.3°C 81% 0.3 mph WSW0.5 kmh WSW 1.0 mph1.6 kmh 30.05 in1017.6 mb - 0.00 in0.0 mm 0.00 in0.0 mm
07:00 PM 70.9°F21.6°C 65.1°F18.4°C 82% 0.6 mph WSW1.0 kmh WSW 3.0 mph4.8 kmh 30.05 in1017.6 mb - 0.00 in0.0 mm 0.00 in0.0 mm
07:10 PM 70.3°F21.3°C 64.9°F18.3°C 83% Calm Calm 1.0 mph1.6 kmh 30.05 in1017.6 mb - 0.00 in0.0 mm 0.00 in0.0 mm
07:20 PM 69.8°F21.0°C 64.7°F18.2°C 84% Calm Calm -- 30.05 in1017.6 mb - 0.00 in0.0 mm 0.00 in0.0 mm
07:30 PM 69.4°F20.8°C 64.7°F18.2°C 85% Calm Calm -- 30.05 in1017.6 mb - 0.00 in0.0 mm 0.00 in0.0 mm
07:40 PM 69.3°F20.7°C 64.6°F18.1°C 85% Calm Calm -- 30.05 in1017.6 mb - 0.00 in0.0 mm 0.00 in0.0 mm
07:50 PM 68.9°F20.5°C 64.5°F18.1°C 86% Calm Calm -- 30.06 in1017.9 mb - 0.00 in0.0 mm 0.00 in0.0 mm
08:00 PM 68.6°F20.3°C 64.6°F18.1°C 87% Calm Calm -- 30.06 in1017.9 mb - 0.00 in0.0 mm 0.00 in0.0 mm
08:10 PM 68.5°F20.3°C 64.5°F18.1°C 87% Calm Calm -- 30.06 in1017.9 mb - 0.00 in0.0 mm 0.00 in0.0 mm
08:20 PM 68.3°F20.2°C 64.3°F17.9°C 87% Calm Calm -- 30.06 in1017.9 mb - 0.00 in0.0 mm 0.00 in0.0 mm
08:30 PM 68.2°F20.1°C 64.5°F18.1°C 88% Calm Calm -- 30.06 in1017.9 mb - 0.00 in0.0 mm 0.00 in0.0 mm
08:40 PM 68.0°F20.0°C 64.3°F17.9°C 88% Calm Calm -- 30.06 in1017.9 mb - 0.00 in0.0 mm 0.00 in0.0 mm
08:50 PM 67.9°F19.9°C 64.2°F17.9°C 88% Calm Calm -- 30.06 in1017.9 mb - 0.00 in0.0 mm 0.00 in0.0 mm
09:00 PM 67.9°F19.9°C 64.2°F17.9°C 88% Calm Calm -- 30.07 in1018.3 mb - 0.00 in0.0 mm 0.00 in0.0 mm
09:10 PM 67.8°F19.9°C 64.1°F17.8°C 88% Calm Calm -- 30.07 in1018.3 mb - 0.00 in0.0 mm 0.00 in0.0 mm
09:20 PM 67.7°F19.8°C 64.0°F17.8°C 88% 0.1 mph WSW0.2 kmh WSW 2.0 mph3.2 kmh 30.07 in1018.3 mb - 0.00 in0.0 mm 0.00 in0.0 mm
09:30 PM 67.5°F19.7°C 64.1°F17.8°C 89% Calm Calm -- 30.07 in1018.3 mb - 0.00 in0.0 mm 0.00 in0.0 mm
09:40 PM 67.5°F19.7°C 64.1°F17.8°C 89% Calm Calm -- 30.07 in1018.3 mb - 0.00 in0.0 mm 0.00 in0.0 mm
09:50 PM 67.5°F19.7°C 64.1°F17.8°C 89% Calm Calm -- 30.07 in1018.3 mb - 0.00 in0.0 mm 0.00 in0.0 mm
10:00 PM 67.4°F19.7°C 64.0°F17.8°C 89% Calm Calm -- 30.07 in1018.3 mb - 0.00 in0.0 mm 0.00 in0.0 mm
10:10 PM 67.3°F19.6°C 63.9°F17.7°C 89% Calm Calm -- 30.07 in1018.3 mb - 0.00 in0.0 mm 0.00 in0.0 mm
10:20 PM 67.0°F19.4°C 63.3°F17.4°C 88% Calm Calm -- 30.07 in1018.3 mb - 0.00 in0.0 mm 0.00 in0.0 mm
10:30 PM 66.8°F19.3°C 63.1°F17.3°C 88% Calm Calm -- 30.07 in1018.3 mb - 0.00 in0.0 mm 0.00 in0.0 mm
10:40 PM 66.8°F19.3°C 62.8°F17.1°C 87% Calm Calm -- 30.06 in1017.9 mb - 0.00 in0.0 mm 0.00 in0.0 mm
10:50 PM 66.7°F19.3°C 62.7°F17.1°C 87% 0.3 mph WSW0.5 kmh WSW -- 30.06 in1017.9 mb - 0.00 in0.0 mm 0.00 in0.0 mm
11:00 PM 66.6°F19.2°C 62.2°F16.8°C 86% 0.2 mph WSW0.3 kmh WSW 1.0 mph1.6 kmh 30.07 in1018.3 mb - 0.00 in0.0 mm 0.00 in0.0 mm
11:10 PM 66.7°F19.3°C 62.4°F16.9°C 86% Calm Calm -- 30.07 in1018.3 mb - 0.00 in0.0 mm 0.00 in0.0 mm
11:20 PM 66.8°F19.3°C 62.5°F16.9°C 86% 0.2 mph WSW0.3 kmh WSW 2.0 mph3.2 kmh 30.07 in1018.3 mb - 0.00 in0.0 mm 0.00 in0.0 mm
11:30 PM 66.9°F19.4°C 62.5°F16.9°C 86% Calm Calm -- 30.08 in1018.6 mb - 0.00 in0.0 mm 0.00 in0.0 mm
11:40 PM 67.0°F19.4°C 62.7°F17.1°C 86% Calm Calm -- 30.08 in1018.6 mb - 0.00 in0.0 mm 0.00 in0.0 mm
11:50 PM 67.0°F19.4°C 62.7°F17.1°C 86% 0.8 mph WSW1.3 kmh WSW 1.0 mph1.6 kmh 30.08 in1018.6 mb - 0.00 in0.0 mm 0.00 in0.0 mm